createdAt,value
2017-12-19T00:19:03.035Z,2.85
2017-12-19T00:39:38.304Z,3.07
2017-12-19T01:00:11.730Z,3.14
2017-12-19T01:20:45.778Z,2.83
2017-12-19T01:41:21.047Z,2.95
2017-12-19T02:01:58.470Z,2.88
2017-12-19T02:22:31.595Z,2.87
2017-12-19T02:43:19.767Z,2.94
2017-12-19T03:03:51.963Z,2.93
2017-12-19T03:24:25.098Z,3.08
2017-12-19T03:44:59.434Z,3.06
2017-12-19T04:05:32.556Z,3.19
2017-12-19T04:26:03.834Z,3.21
2017-12-19T04:46:37.326Z,3.33
2017-12-19T05:07:11.544Z,3.43
2017-12-19T05:27:44.425Z,3.50
2017-12-19T05:48:16.623Z,3.36
2017-12-19T06:08:48.820Z,3.45
2017-12-19T06:29:24.102Z,3.47
2017-12-19T06:49:59.366Z,3.37
2017-12-19T07:10:33.834Z,3.20
2017-12-19T07:31:15.135Z,3.13
2017-12-19T07:51:51.019Z,3.11
2017-12-19T08:12:25.369Z,3.39
2017-12-19T08:33:01.575Z,3.51
2017-12-19T08:53:37.448Z,3.71
2017-12-19T09:14:10.880Z,3.73
2017-12-19T09:34:47.377Z,3.64
2017-12-19T09:55:21.425Z,3.88
2017-12-19T10:15:55.770Z,4.15
2017-12-19T10:36:34.225Z,4.60
2017-12-19T10:57:09.463Z,4.95
2017-12-19T11:17:42.507Z,5.33
2017-12-19T11:38:19.621Z,5.59
2017-12-19T11:58:56.164Z,5.84
2017-12-19T12:19:31.086Z,6.09
2017-12-19T12:40:04.208Z,5.80
2017-12-19T13:00:38.557Z,5.63
2017-12-19T13:21:11.743Z,5.81
2017-12-19T13:41:43.880Z,5.95
2017-12-19T14:02:18.227Z,5.46
2017-12-19T14:22:59.341Z,5.40
2017-12-19T14:43:35.833Z,5.58
2017-12-19T15:04:08.961Z,5.38
2017-12-19T15:24:44.229Z,5.24
2017-12-19T15:45:19.497Z,4.94
2017-12-19T16:05:52.623Z,5.06
2017-12-19T16:26:26.972Z,5.10
2017-12-19T16:47:01.012Z,5.02
2017-12-19T17:07:35.524Z,5.09
2017-12-19T17:28:09.408Z,5.12
2017-12-19T17:48:46.830Z,5.06
2017-12-19T18:09:23.236Z,5.19
2017-12-19T18:29:57.069Z,4.91
2017-12-19T18:50:33.564Z,4.99
2017-12-19T19:11:07.929Z,5.02
2017-12-19T19:31:39.810Z,4.98
2017-12-19T19:52:12.932Z,4.92
2017-12-19T20:12:47.285Z,4.82
2017-12-19T20:33:22.554Z,4.79
2017-12-19T20:53:55.676Z,4.93
2017-12-19T21:14:28.800Z,4.97
2017-12-19T21:35:04.378Z,4.85
2017-12-19T21:55:38.658Z,4.85
2017-12-19T22:16:12.464Z,4.86
2017-12-19T22:36:46.819Z,4.75
2017-12-19T22:57:22.083Z,4.85
2017-12-19T23:17:56.131Z,4.65
2017-12-19T23:38:30.767Z,4.73
2017-12-19T23:59:06.672Z,4.56
